Terminal Aerodrome Forecast
Issued by NWS

Home | Current Version | Previous Version | Text Only | Print | Product List | Glossary On
Versions: 1 2 3 4 5 6 7 8 9 10 11 12
809
FTUS44 KEPZ 120525
TAFTCS
TAF
KTCS 120525Z 1206/1306 32006KT P6SM SKC
     FM121200 VRB04KT P6SM FEW250
     FM122100 15005KT P6SM SKC=

USA.gov is the U.S. government's official web portal to all federal, state and local government web resources and services.